createdAt,value
2017-08-24T20:14:21.616Z,39.90
2017-08-24T20:15:24.186Z,43.83
2017-08-24T20:16:26.753Z,45.90
2017-08-24T20:17:29.310Z,45.60
2017-08-24T20:18:31.929Z,48.13
2017-08-24T20:19:34.531Z,47.10
2017-08-24T20:20:37.521Z,49.05
2017-08-24T20:21:40.163Z,47.28
2017-08-24T20:22:42.717Z,44.42
2017-08-24T20:23:45.299Z,49.92
2017-08-24T20:24:48.077Z,47.28
2017-08-24T20:25:50.664Z,58.80
2017-08-24T20:26:53.231Z,57.40
2017-08-24T20:27:55.807Z,57.85
2017-08-24T20:28:58.364Z,57.85
2017-08-24T20:30:01.045Z,51.63
2017-08-24T20:31:03.633Z,52.70
2017-08-24T20:32:06.217Z,55.75
2017-08-24T20:33:09.120Z,49.28
2017-08-24T20:34:11.706Z,48.38
2017-08-24T20:35:14.275Z,56.78
2017-08-24T20:36:16.892Z,59.65
2017-08-24T20:37:19.467Z,61.42
2017-08-24T20:38:22.051Z,63.42
2017-08-24T20:39:24.686Z,59.47
2017-08-24T20:40:27.266Z,60.95
2017-08-24T20:41:29.884Z,63.67
2017-08-24T20:42:33.099Z,65.43
2017-08-24T20:43:35.674Z,58.55
2017-08-24T20:44:38.253Z,61.70
2017-08-24T20:45:40.811Z,66.93
2017-08-24T20:46:43.406Z,60.05
2017-08-24T20:47:46.270Z,63.53
2017-08-24T20:48:48.928Z,65.05
2017-08-24T20:49:51.511Z,57.88
2017-08-24T20:50:54.076Z,55.35
2017-08-24T20:51:56.692Z,57.83
2017-08-24T20:52:59.307Z,61.50
2017-08-24T20:54:01.925Z,54.70
2017-08-24T20:55:04.534Z,52.00
2017-08-24T20:56:07.197Z,53.75
2017-08-24T20:57:09.825Z,55.58
2017-08-24T20:58:12.428Z,61.45
2017-08-24T20:59:14.970Z,55.80
2017-08-24T21:00:17.518Z,56.00
2017-08-24T21:01:20.061Z,52.42
2017-08-24T21:02:22.616Z,53.97
2017-08-24T21:03:25.306Z,58.63
2017-08-24T21:04:28.094Z,56.70
2017-08-24T21:05:30.816Z,63.10
2017-08-24T21:06:33.464Z,59.25
2017-08-24T21:07:36.020Z,64.30
2017-08-24T21:08:38.913Z,61.47
2017-08-24T21:09:41.471Z,55.58
2017-08-24T21:10:44.043Z,60.83
2017-08-24T21:11:46.690Z,55.55
2017-08-24T21:12:49.659Z,62.88
2017-08-24T21:13:52.293Z,60.80
2017-08-24T21:14:54.862Z,62.08
2017-08-24T21:15:57.455Z,62.10
2017-08-24T21:17:00.020Z,58.70
2017-08-24T21:18:02.585Z,61.28
2017-08-24T21:19:05.935Z,63.10
2017-08-24T21:20:08.638Z,59.83
2017-08-24T21:21:11.295Z,60.67
2017-08-24T21:22:13.878Z,58.58
2017-08-24T21:23:16.459Z,58.75
2017-08-24T21:24:19.117Z,55.12
2017-08-24T21:25:21.703Z,54.35
2017-08-24T21:26:24.253Z,67.62
2017-08-24T21:27:26.834Z,64.32
2017-08-24T21:28:29.897Z,63.22
2017-08-24T21:29:32.834Z,61.20
2017-08-24T21:30:35.401Z,58.22
2017-08-24T21:31:38.099Z,61.22
2017-08-24T21:32:40.744Z,72.82
2017-08-24T21:33:43.343Z,60.25
2017-08-24T21:34:45.945Z,68.30
2017-08-24T21:35:49.130Z,65.10
2017-08-24T21:36:52.332Z,68.40
2017-08-24T21:37:55.002Z,62.47
2017-08-24T21:38:57.578Z,58.95
2017-08-24T21:40:00.236Z,72.35
2017-08-24T21:41:02.854Z,75.47
2017-08-24T21:42:05.525Z,73.28
2017-08-24T21:43:08.147Z,82.60
2017-08-24T21:44:10.754Z,72.87
2017-08-24T21:45:13.377Z,75.87
2017-08-24T21:46:16.302Z,80.12
2017-08-24T21:47:18.890Z,72.72
2017-08-24T21:48:21.456Z,67.22
2017-08-24T21:49:24.029Z,72.85
2017-08-24T21:50:26.626Z,69.07
2017-08-24T21:51:29.194Z,57.38
2017-08-24T21:52:31.762Z,60.75
2017-08-24T21:53:34.362Z,64.47
2017-08-24T21:54:36.970Z,61.85
2017-08-24T21:55:39.523Z,75.37
2017-08-24T21:56:42.083Z,63.87
2017-08-24T21:57:44.665Z,62.90
2017-08-24T21:58:47.218Z,70.50
2017-08-24T21:59:49.816Z,65.43
2017-08-24T22:00:52.428Z,71.28
2017-08-24T22:01:54.963Z,60.38
2017-08-24T22:02:57.533Z,65.03
2017-08-24T22:04:00.087Z,61.28
2017-08-24T22:05:02.698Z,62.53
2017-08-24T22:06:06.009Z,69.82
2017-08-24T22:07:08.652Z,67.20
2017-08-24T22:08:11.389Z,62.45
2017-08-24T22:09:14.589Z,69.75
2017-08-24T22:10:17.338Z,62.75
2017-08-24T22:11:19.898Z,58.80
2017-08-24T22:12:22.687Z,58.72
2017-08-24T22:13:25.324Z,55.22
2017-08-24T22:14:27.897Z,66.60
2017-08-24T22:15:30.479Z,61.55
2017-08-24T22:16:33.048Z,66.78
2017-08-24T22:17:35.605Z,62.33
2017-08-24T22:18:38.230Z,59.60
2017-08-24T22:19:40.785Z,67.28
2017-08-24T22:20:43.371Z,59.17
2017-08-24T22:21:45.991Z,57.08
2017-08-24T22:22:48.603Z,64.45
2017-08-24T22:23:51.973Z,66.10
2017-08-24T22:24:54.537Z,69.68
2017-08-24T22:25:57.093Z,72.90
2017-08-24T22:26:59.650Z,70.50
2017-08-24T22:28:02.194Z,65.40
2017-08-24T22:29:04.876Z,62.65
2017-08-24T22:30:07.498Z,64.28
2017-08-24T22:31:10.071Z,58.78
2017-08-24T22:32:12.637Z,68.65
2017-08-24T22:33:15.183Z,66.03
2017-08-24T22:34:17.763Z,60.45
2017-08-24T22:35:20.304Z,67.82
2017-08-24T22:36:22.845Z,62.42
2017-08-24T22:37:25.448Z,69.07
2017-08-24T22:38:28.015Z,59.65
2017-08-24T22:39:30.632Z,71.30
2017-08-24T22:40:33.271Z,67.15
2017-08-24T22:41:35.831Z,72.22
2017-08-24T22:42:38.507Z,66.78
2017-08-24T22:43:41.074Z,66.80
2017-08-24T22:44:43.687Z,65.45
2017-08-24T22:45:46.338Z,65.55
2017-08-24T22:46:48.924Z,61.40
2017-08-24T22:47:51.486Z,61.78
2017-08-24T22:48:54.053Z,70.97
2017-08-24T22:49:57.474Z,66.93
2017-08-24T22:51:00.047Z,62.90
2017-08-24T22:52:02.710Z,67.90
2017-08-24T22:54:47.427Z,63.00
2017-08-24T22:55:55.600Z,62.70
2017-08-24T22:57:03.836Z,65.47
2017-08-24T22:58:12.024Z,66.60
2017-08-24T22:59:21.156Z,64.93
2017-08-24T23:00:29.402Z,67.03
2017-08-24T23:01:37.655Z,64.62
2017-08-24T23:02:46.120Z,64.93
2017-08-24T23:03:54.306Z,70.40
2017-08-24T23:04:57.032Z,70.72
2017-08-24T23:05:59.689Z,71.65
2017-08-24T23:07:02.256Z,69.22
2017-08-24T23:08:04.868Z,72.72
2017-08-24T23:09:07.435Z,61.13
2017-08-24T23:10:10.024Z,72.12
2017-08-24T23:11:12.563Z,74.65
2017-08-24T23:12:15.138Z,63.28
2017-08-24T23:13:17.720Z,68.43
2017-08-24T23:14:20.423Z,62.88
2017-08-24T23:15:23.007Z,64.97
2017-08-24T23:16:25.586Z,64.47
2017-08-24T23:17:28.175Z,59.97
2017-08-24T23:18:30.760Z,67.03
2017-08-24T23:19:33.803Z,63.97
2017-08-24T23:20:36.411Z,66.95
2017-08-24T23:21:38.981Z,61.25
2017-08-24T23:22:41.542Z,63.90
2017-08-24T23:23:44.100Z,72.35
2017-08-24T23:24:46.729Z,64.35
2017-08-24T23:25:49.341Z,67.82
2017-08-24T23:26:51.891Z,65.15
2017-08-24T23:27:54.458Z,69.03
2017-08-24T23:28:57.043Z,69.47
2017-08-24T23:29:59.618Z,60.08
2017-08-24T23:31:02.249Z,74.60
2017-08-24T23:32:05.141Z,63.33
2017-08-24T23:33:07.767Z,62.72
2017-08-24T23:34:10.326Z,64.65
2017-08-24T23:35:12.898Z,70.95
2017-08-24T23:36:15.458Z,75.45
2017-08-24T23:37:17.997Z,65.93
2017-08-24T23:38:20.596Z,68.97
2017-08-24T23:39:23.171Z,69.22
2017-08-24T23:40:25.727Z,72.80
2017-08-24T23:41:28.269Z,67.80
2017-08-24T23:42:30.971Z,80.93
2017-08-24T23:43:34.015Z,70.80
2017-08-24T23:44:37.203Z,67.72
2017-08-24T23:45:39.770Z,76.03
2017-08-24T23:46:42.342Z,68.80
2017-08-24T23:47:44.932Z,67.95
2017-08-24T23:48:47.478Z,71.45
2017-08-24T23:49:50.083Z,73.18
2017-08-24T23:50:52.666Z,76.35
2017-08-24T23:51:55.303Z,67.43
2017-08-24T23:52:58.674Z,78.03
2017-08-24T23:54:01.233Z,68.65
2017-08-24T23:55:04.652Z,68.37
2017-08-24T23:56:07.208Z,69.53
2017-08-24T23:57:09.791Z,73.47
2017-08-24T23:58:12.392Z,77.82
2017-08-24T23:59:14.920Z,78.70
